This is the latest recevied weather packets stored in our database for station/object VK5ALG-13. If no packets are shown the sender has not sent any weather packets the latest 10 day(s).
| Time | Temp. | Humidity | Pressure | Rain* | Wind** | Luminosity | Snow |
|---|---|---|---|---|---|---|---|
| 1777761020 | 12.22° C | 87% | 1011.9 hPa | 0 mm | - | - | - |
| 1777759833 | 12.22° C | 89% | 1011.8 hPa | 0 mm | - | - | - |
| 1777759229 | 12.22° C | 89% | 1011.9 hPa | 0 mm | - | - | - |
| 1777756835 | 12.22° C | 90% | 1011.2 hPa | 0 mm | - | - | - |
| 1777755024 | 12.22° C | 90% | 1010.8 hPa | 0 mm | - | - | - |
| 1777750820 | 12.22° C | 91% | 1010.6 hPa | 0 mm | - | - | - |
| 1777750216 | 12.22° C | 91% | 1010.6 hPa | 0 mm | - | - | - |
| 1777728045 | 13.89° C | 91% | 1011.5 hPa | 0 mm | - | - | - |
| 1777724423 | 14.44° C | 92% | 1011.6 hPa | 0 mm | - | - | - |
| 1777723860 | 14.44° C | 92% | 1011.6 hPa | 0 mm | - | - | - |
| 1777720218 | 15° C | 91% | 1011.2 hPa | 0 mm | - | - | - |
| 1777719635 | 15° C | 91% | 1011 hPa | 0 mm | - | - | - |
| 1777718435 | 15° C | 91% | 1011 hPa | 0 mm | - | - | - |
| 1777716617 | 15° C | 91% | 1010.7 hPa | 0 mm | - | - | - |
| 1777713619 | 14.44° C | 92% | 1010.6 hPa | 0 mm | - | - | - |
| 1777713036 | 14.44° C | 92% | 1010.4 hPa | 0 mm | - | - | - |
| 1777705250 | 15° C | 94% | 1010.3 hPa | 1.02 mm | - | - | - |
| 1777699818 | 15.56° C | 93% | 1009.8 hPa | 1.78 mm | - | - | - |
| 1777698630 | 16.11° C | 93% | 1009.4 hPa | 3.05 mm | - | - | - |
| 1777698027 | 15.56° C | 92% | 1009.9 hPa | 3.05 mm | - | - | - |
| 1777697423 | 15.56° C | 92% | 1009.5 hPa | 2.54 mm | - | - | - |
| 1777683622 | 21.67° C | 54% | 1009.9 hPa | 0 mm | - | - | - |
| 1777681228 | 20° C | 60% | 1010 hPa | 0.25 mm | - | - | - |
| 1777675232 | 23.33° C | 40% | 1009.8 hPa | 0 mm | - | - | - |
| 1777668632 | 23.33° C | 39% | 1008.8 hPa | 0 mm | - | - | - |
* Rain latest hour (hover to see other rain measurements)
** Current wind speed in m/s (hover to see current wind gust speed)